Airfield :
LOGIN :

Register | Disclaimer

   EN    FR    IT 

 










Legend :    VFR   Marginal VFR   IFR   Intensive IFR   Very Intensive IFR
Visi :
Ceiling :
>= 8 km
>= 3000ft
5 to 8 km
1000 to 3000 ft
1500m to 5 km
500 to 1000 ft
800 to 1500m
200 to 500 ft
< 800m
< 200 ft
Symbols :   Thunderstorms  Fog  Heavy snow  Heavy precipitations  Wind > 20 kt
SIGMETs :     Misc.  Thunderstorms  Icing  Turbulence  Mountain Waves  Volcanic Ashes






- Airport Elevation : 257 ft
- IATA code : MAN


EGCC - Manchester

CURRENT METAR :
  • 190850Z 27006KT 240V300 9999 BKN005 09/08 Q0997 BECMG FEW006 BKN010

EXPIRED METARs :
  • 190820Z 25004KT 9999 BKN005 09/08 Q0997 BECMG FEW007 SCT030
  • 190750Z VRB03KT 9999 FEW004 SCT048 08/08 Q0996
  • 190720Z 24004KT 9999 FEW004 SCT017 08/08 Q0996 NOSIG
  • 190650Z 23004KT 9999 SCT005 BKN016 08/07 Q0995
  • 190620Z AUTO VRB03KT 9999 BKN004 OVC013 08/07 Q0995

TAF TAF EGCC
Valid from the 19 at 06:00 until the 20 at 12:00 UTC


190502Z 1906/2012 22006KT 9999 FEW012 SCT035
TEMPO 1906/1921 6000 SHRA
PROB30
TEMPO 1906/1917 3000 +SHRA BKN012 BKN020CB
PROB30
TEMPO 1906/1909 BKN006
TEMPO 1917/1922 BKN012
PROB40 2003/2006 6000
ATIS : +44 161 499 2324



MET'MAP, your aeronautical weather chart ! - Copyright ORBIFLY December 2007 - Disclaimer

ORBIFLY MET'MAP TEAM :

Programming & Development : Alexandra Zaïnal
Concept & Development : Baudouin d'Aumeries
Co-Development & Prog : Marc-Olivier Méhu
Technical & hardware support : Manuel Goepfert

Contact : metmap@orbifly.com




SOURCES & CREDITS :

   NOAA